»·PEaware :: AAL225 KPDX-KRDD

AAL225 :: KPDX-KRDD

FLIGHT INFORMATION

Flight Status: Arrived
Operator:
American Airlines
More flights by this operator :: More flights under this callsign
Pilot: Michael R. (16974)
Aircraft: AIRBUS A320
(A320)
More flights by this aircraft type
Origin: KPDX Portland Intl
United States
Destination: KRDD Redding Mun
United States
More flights between these airports :: More routes between these airports
Route: +PTLD1 EUG OED
File this flight plan on PilotEdge
Remarks:
Altitude:
(Current/Filed)
33,000ft
Speed:
(Current/Filed)
410kts
Departed: 15-Sep-18 03:03 PM
Arrived: 15-Sep-18 04:02 PM
Distance/Time
Traveled:
305nm/0:59
Distance/Time
To Go:
Arrived

Flight Plot

Page will automatically refresh every two minutes.

Flight plan parsing failed; only flown route is shown


Map Options




Map Legend


Flown Route
Filed Route
Departure Airport
Arrival Airport
Navaid (VOR, NDB)
Fix

Horizontal Profiles

Position Reports

Time Latitude Longitude Heading Altitude Ground
Speed
15-Sep-18 14:45 45.588810 -122.597420 29 38ft 0kts
15-Sep-18 14:46 45.588810 -122.597420 29 38ft 0kts
15-Sep-18 14:47 45.588810 -122.597420 29 38ft 0kts
15-Sep-18 14:48 45.588810 -122.597420 29 38ft 0kts
15-Sep-18 14:49 45.588810 -122.597420 29 38ft 0kts
15-Sep-18 14:50 45.588810 -122.597420 29 38ft 0kts
15-Sep-18 14:51 45.588810 -122.597420 29 38ft 0kts
15-Sep-18 14:52 45.588810 -122.597420 29 38ft 0kts
15-Sep-18 14:53 45.588810 -122.597420 29 38ft 0kts
15-Sep-18 14:54 45.588810 -122.597420 29 38ft 0kts
15-Sep-18 14:55 45.588810 -122.597420 29 38ft 0kts
15-Sep-18 14:56 45.588810 -122.597420 29 38ft 0kts
15-Sep-18 14:57 45.588810 -122.597420 29 38ft 0kts
15-Sep-18 14:58 45.588428 -122.597727 29 38ft 2kts
15-Sep-18 14:59 45.588234 -122.598356 121 38ft 1kts
15-Sep-18 15:00 45.588262 -122.598418 119 38ft 0kts
15-Sep-18 15:01 45.588262 -122.598418 119 38ft 0kts
15-Sep-18 15:02 45.586633 -122.594347 126 38ft 21kts
15-Sep-18 15:03 45.582944 -122.586916 118 38ft 24kts
15-Sep-18 15:04 45.581266 -122.583613 183 38ft 6kts
15-Sep-18 15:05 45.584159 -122.593273 299 38ft 114kts
15-Sep-18 15:06 45.610579 -122.657322 302 2205ft 223kts
15-Sep-18 15:07 45.639800 -122.746068 291 5491ft 264kts
15-Sep-18 15:08 45.607301 -122.822632 191 8970ft 273kts
15-Sep-18 15:09 45.528936 -122.843706 191 11369ft 319kts
15-Sep-18 15:10 45.435532 -122.869279 192 13415ft 354kts
15-Sep-18 15:11 45.338349 -122.895840 192 15839ft 364kts
15-Sep-18 15:12 45.238470 -122.923172 192 17991ft 373kts
15-Sep-18 15:13 45.135591 -122.951247 192 20025ft 379kts
15-Sep-18 15:14 45.032428 -122.979289 193 21960ft 384kts
15-Sep-18 15:15 44.926794 -123.007932 193 23596ft 392kts
15-Sep-18 15:16 44.820991 -123.036463 194 25391ft 393kts
15-Sep-18 15:17 44.712860 -123.065560 194 26865ft 401kts
15-Sep-18 15:18 44.602936 -123.095023 195 28176ft 408kts
15-Sep-18 15:19 44.490989 -123.124879 195 29650ft 408kts
15-Sep-18 15:20 44.380767 -123.154176 196 31159ft 405kts
15-Sep-18 15:21 44.269698 -123.183663 196 32158ft 412kts
15-Sep-18 15:22 44.156215 -123.213627 196 32955ft 419kts
15-Sep-18 15:23 44.038298 -123.206937 178 33003ft 433kts
15-Sep-18 15:24 43.919246 -123.183807 178 33003ft 434kts
15-Sep-18 15:25 43.801684 -123.161180 178 33009ft 434kts
15-Sep-18 15:26 43.682051 -123.138257 178 32998ft 435kts
15-Sep-18 15:27 43.562592 -123.115457 178 32992ft 435kts
15-Sep-18 15:28 43.443331 -123.092786 178 32983ft 434kts
15-Sep-18 15:29 43.324261 -123.070246 178 32979ft 434kts
15-Sep-18 15:30 43.205003 -123.047762 178 32978ft 434kts
15-Sep-18 15:31 43.085791 -123.025375 178 32979ft 434kts
15-Sep-18 15:32 42.966386 -123.003042 178 32950ft 436kts
15-Sep-18 15:33 42.846939 -122.980812 177 32917ft 443kts
15-Sep-18 15:34 42.724727 -122.958123 177 32978ft 449kts
15-Sep-18 15:35 42.601236 -122.935280 177 33007ft 450kts
15-Sep-18 15:36 42.477609 -122.911541 174 32999ft 451kts
15-Sep-18 15:37 42.355666 -122.872725 171 32971ft 452kts
15-Sep-18 15:38 42.233701 -122.833403 171 32948ft 451kts
15-Sep-18 15:39 42.112083 -122.794340 171 32931ft 450kts
15-Sep-18 15:40 41.990860 -122.755560 171 32925ft 450kts
15-Sep-18 15:41 41.870876 -122.717322 171 32929ft 450kts
15-Sep-18 15:42 41.750171 -122.679002 171 32938ft 451kts
15-Sep-18 15:43 41.628189 -122.640426 171 32940ft 450kts
15-Sep-18 15:44 41.507208 -122.602313 171 32938ft 450kts
15-Sep-18 15:45 41.385509 -122.564114 171 31248ft 453kts
15-Sep-18 15:46 41.261514 -122.525382 170 27799ft 456kts
15-Sep-18 15:47 41.143230 -122.488416 170 24606ft 433kts
15-Sep-18 15:48 41.027029 -122.452414 169 21329ft 419kts
15-Sep-18 15:49 40.914207 -122.419815 178 18054ft 396kts
15-Sep-18 15:50 40.831285 -122.477294 224 15057ft 355kts
15-Sep-18 15:51 40.765088 -122.569418 224 11819ft 332kts
15-Sep-18 15:52 40.693040 -122.618033 161 9375ft 290kts
15-Sep-18 15:53 40.663578 -122.533663 94 8689ft 291kts
15-Sep-18 15:54 40.661369 -122.435515 94 7055ft 259kts
15-Sep-18 15:55 40.649204 -122.345877 111 5626ft 257kts
15-Sep-18 15:56 40.607541 -122.294216 179 4783ft 214kts
15-Sep-18 15:57 40.549541 -122.295080 182 3181ft 213kts
15-Sep-18 15:58 40.489594 -122.295864 189 2365ft 200kts
15-Sep-18 15:59 40.477900 -122.344848 296 2894ft 160kts
15-Sep-18 16:00 40.520336 -122.355933 357 2218ft 166kts
15-Sep-18 16:01 40.565458 -122.352465 39 1823ft 161kts
15-Sep-18 16:02 40.564733 -122.304198 144 1765ft 134kts
15-Sep-18 16:03 40.531022 -122.294778 181 741ft 125kts
15-Sep-18 16:04 40.508165 -122.295384 274 467ft 15kts
15-Sep-18 16:05 40.507810 -122.297902 226 467ft 18kts
15-Sep-18 16:06 40.504734 -122.298719 293 467ft 3kts
15-Sep-18 16:07 40.504839 -122.298905 313 467ft 0kts
15-Sep-18 16:08 40.504839 -122.298905 313 467ft 0kts
15-Sep-18 16:09 40.505808 -122.298970 315 465ft 0kts
15-Sep-18 16:10 40.505808 -122.298970 315 465ft 0kts
15-Sep-18 16:11 40.505808 -122.298970 315 465ft 0kts
15-Sep-18 16:12 40.505808 -122.298970 315 465ft 0kts
15-Sep-18 16:13 40.505808 -122.298970 315 465ft 0kts
15-Sep-18 16:14 40.505808 -122.298970 315 465ft 0kts
15-Sep-18 16:15 40.505808 -122.298970 315 465ft 0kts
15-Sep-18 16:16 40.505808 -122.298970 315 465ft 0kts
15-Sep-18 16:17 40.505808 -122.298970 315 465ft 0kts
15-Sep-18 16:18 40.505808 -122.298970 315 465ft 0kts
15-Sep-18 16:19 40.505808 -122.298970 315 465ft 0kts

Navigation Log

Ident Type
Flight plan parsing failed, navigation log unavailable